Terminal Aerodrome Forecast
Issued by NWS

Home | Current Version | Previous Version | Text Only | Print | Product List | Glossary On
Versions: 1 2 3 4 5 6 7 8 9 10 11 12 13
243
FTUS46 KLOX 121120
TAFPMD
TAF
KPMD 121120Z 1212/1312 19008KT P6SM SKC
     FM121500 VRB05KT P6SM SKC
     FM121700 04008KT P6SM SKC
     FM130300 VRB05KT P6SM SKC=

USA.gov is the U.S. government's official web portal to all federal, state and local government web resources and services.